createdAt,value
2018-03-14T00:00:28.172Z,7.24
2018-03-14T00:01:28.218Z,7.29
2018-03-14T00:02:28.262Z,7.34
2018-03-14T00:03:28.324Z,7.24
2018-03-14T00:04:28.351Z,7.20
2018-03-14T00:05:28.393Z,7.17
2018-03-14T00:06:28.437Z,7.19
2018-03-14T00:07:28.481Z,7.20
2018-03-14T00:08:28.546Z,7.20
2018-03-14T00:09:28.579Z,7.24
2018-03-14T00:10:28.616Z,7.23
2018-03-14T00:11:28.674Z,7.15
2018-03-14T00:12:28.706Z,7.09
2018-03-14T00:13:28.748Z,7.15
2018-03-14T00:14:28.812Z,7.13
2018-03-14T00:15:28.835Z,7.15
2018-03-14T00:16:28.880Z,7.15
2018-03-14T00:17:28.946Z,7.12
2018-03-14T00:18:28.970Z,7.15
2018-03-14T00:19:29.014Z,7.12
2018-03-14T00:20:29.059Z,7.12
2018-03-14T00:21:29.103Z,7.12
2018-03-14T00:22:29.163Z,7.12
2018-03-14T00:23:29.193Z,7.15
2018-03-14T00:24:29.252Z,7.09
2018-03-14T00:25:29.282Z,7.16
2018-03-14T00:26:29.326Z,7.13
2018-03-14T00:27:29.372Z,7.15
2018-03-14T00:28:29.429Z,7.12
2018-03-14T00:29:29.458Z,7.15
2018-03-14T00:30:29.501Z,7.15
2018-03-14T00:31:29.568Z,7.13
2018-03-14T00:32:29.591Z,7.12
2018-03-14T00:33:29.652Z,7.13
2018-03-14T00:34:29.683Z,7.09
2018-03-14T00:35:29.724Z,7.13
2018-03-14T00:36:29.786Z,7.13
2018-03-14T00:37:29.817Z,7.16
2018-03-14T00:38:29.856Z,7.19
2018-03-14T00:39:29.910Z,7.15
2018-03-14T00:40:29.950Z,7.17
2018-03-14T00:41:30.011Z,7.17
2018-03-14T00:42:30.038Z,7.12
2018-03-14T00:43:30.080Z,7.12
2018-03-14T00:44:30.124Z,7.16
2018-03-14T00:45:30.170Z,7.13
2018-03-14T00:46:30.237Z,7.16
2018-03-14T00:47:30.259Z,7.17
2018-03-14T00:48:30.300Z,7.05
2018-03-14T00:49:30.346Z,7.15
2018-03-14T00:50:30.393Z,7.13
2018-03-14T00:51:30.451Z,7.15
2018-03-14T00:52:30.483Z,7.15
2018-03-14T00:53:30.545Z,7.17
2018-03-14T00:54:30.571Z,7.07
2018-03-14T00:55:30.615Z,7.13
2018-03-14T00:56:30.660Z,7.17
2018-03-14T00:57:30.704Z,7.04
2018-03-14T00:58:30.766Z,7.02
2018-03-14T00:59:30.790Z,7.04
2018-03-14T01:00:30.835Z,7.01
2018-03-14T01:01:30.880Z,7.07
2018-03-14T01:02:30.940Z,7.01
2018-03-14T01:03:31.595Z,6.97
2018-03-14T01:04:31.030Z,6.97
2018-03-14T01:05:31.057Z,6.94
2018-03-14T01:06:31.105Z,6.90
2018-03-14T01:07:31.147Z,6.95
2018-03-14T01:08:31.191Z,6.97
2018-03-14T01:09:31.252Z,6.99
2018-03-14T01:10:31.286Z,6.95
2018-03-14T01:11:31.326Z,6.91
2018-03-14T01:12:31.391Z,6.95
2018-03-14T01:13:31.431Z,6.95
2018-03-14T01:14:31.462Z,6.91
2018-03-14T01:15:31.502Z,6.90
2018-03-14T01:16:31.547Z,6.91
2018-03-14T01:17:31.595Z,6.95
2018-03-14T01:18:31.657Z,6.97
2018-03-14T01:19:31.681Z,6.98
2018-03-14T01:20:31.729Z,6.99
2018-03-14T01:21:31.770Z,7.01
2018-03-14T01:22:31.816Z,7.05
2018-03-14T01:23:31.878Z,7.07
2018-03-14T01:24:31.920Z,7.07
2018-03-14T01:25:31.948Z,7.04
2018-03-14T01:26:31.994Z,6.99
2018-03-14T01:27:32.037Z,7.07
2018-03-14T01:28:32.082Z,7.01
2018-03-14T01:29:32.142Z,7.01
2018-03-14T01:30:32.174Z,7.05
2018-03-14T01:31:32.219Z,7.13
2018-03-14T01:32:32.259Z,7.12
2018-03-14T01:33:32.303Z,7.19
2018-03-14T01:34:32.370Z,7.13
2018-03-14T01:35:32.392Z,7.16
2018-03-14T01:36:32.440Z,7.15
2018-03-14T01:37:32.481Z,7.13
2018-03-14T01:38:32.526Z,7.12
2018-03-14T01:39:32.585Z,7.15
2018-03-14T01:40:32.631Z,7.13
2018-03-14T01:41:32.659Z,7.13
2018-03-14T01:42:32.706Z,7.15
2018-03-14T01:43:32.747Z,7.17
2018-03-14T01:44:32.795Z,7.16
2018-03-14T01:45:32.857Z,7.09
2018-03-14T01:46:32.883Z,7.15
2018-03-14T01:47:32.930Z,7.31
2018-03-14T01:48:32.970Z,7.23
2018-03-14T01:49:33.020Z,7.15
2018-03-14T01:50:33.081Z,7.27
2018-03-14T01:51:33.104Z,7.16
2018-03-14T01:52:33.147Z,7.22
2018-03-14T01:53:33.192Z,7.27
2018-03-14T01:54:33.241Z,7.24
2018-03-14T01:55:33.308Z,7.15
2018-03-14T01:56:33.325Z,7.24
2018-03-14T01:57:33.370Z,7.17
2018-03-14T01:58:33.416Z,7.16
2018-03-14T01:59:33.458Z,7.15
2018-03-14T02:00:33.521Z,7.29
2018-03-14T02:01:33.552Z,7.19
2018-03-14T02:02:33.594Z,7.12
2018-03-14T02:03:33.636Z,7.15
2018-03-14T02:04:33.687Z,7.15
2018-03-14T02:05:33.741Z,7.24
2018-03-14T02:06:33.792Z,7.16
2018-03-14T02:07:33.816Z,7.19
2018-03-14T02:08:33.862Z,7.15
2018-03-14T02:09:33.903Z,7.15
2018-03-14T02:10:33.947Z,7.31
2018-03-14T02:11:34.009Z,7.17
2018-03-14T02:12:34.037Z,7.27
2018-03-14T02:13:34.081Z,7.20
2018-03-14T02:14:34.130Z,7.22
2018-03-14T02:15:34.172Z,7.26
2018-03-14T02:16:34.232Z,7.24
2018-03-14T02:17:34.257Z,7.15
2018-03-14T02:18:34.305Z,7.19
2018-03-14T02:19:34.347Z,7.13
2018-03-14T02:20:34.392Z,7.20
2018-03-14T02:21:34.454Z,7.20
2018-03-14T02:22:34.482Z,7.13
2018-03-14T02:23:34.524Z,7.15
2018-03-14T02:24:34.579Z,7.16
2018-03-14T02:25:34.613Z,7.08
2018-03-14T02:26:34.677Z,7.19
2018-03-14T02:27:34.703Z,7.19
2018-03-14T02:28:35.291Z,7.20
2018-03-14T02:29:34.792Z,7.19
2018-03-14T02:30:34.838Z,7.23
2018-03-14T02:31:34.895Z,7.22
2018-03-14T02:32:34.923Z,7.17
2018-03-14T02:33:34.984Z,7.13
2018-03-14T02:34:35.014Z,7.22
2018-03-14T02:35:35.056Z,7.19
2018-03-14T02:36:35.104Z,7.23
2018-03-14T02:37:35.148Z,7.13
2018-03-14T02:38:35.207Z,7.19
2018-03-14T02:39:35.239Z,7.13
2018-03-14T02:40:35.280Z,7.19
2018-03-14T02:41:35.326Z,7.17
2018-03-14T02:42:35.374Z,7.31
2018-03-14T02:43:35.427Z,7.24
2018-03-14T02:44:35.456Z,7.27
2018-03-14T02:45:35.506Z,7.17
2018-03-14T02:46:35.556Z,7.22
2018-03-14T02:47:35.594Z,7.16
2018-03-14T02:48:35.651Z,7.20
2018-03-14T02:49:35.679Z,7.23
2018-03-14T02:50:35.724Z,7.17
2018-03-14T02:51:35.788Z,7.09
2018-03-14T02:52:35.812Z,7.13
2018-03-14T02:53:35.872Z,7.04
2018-03-14T02:54:35.905Z,7.13
2018-03-14T02:55:35.945Z,7.12
2018-03-14T02:56:35.991Z,7.12
2018-03-14T02:57:36.037Z,7.13
2018-03-14T02:58:36.099Z,7.13
2018-03-14T02:59:36.126Z,7.02
2018-03-14T03:00:36.167Z,7.07
2018-03-14T03:01:36.213Z,6.98
2018-03-14T03:02:37.291Z,6.99
2018-03-14T03:03:36.326Z,6.94
2018-03-14T03:04:36.347Z,6.91
2018-03-14T03:05:36.389Z,6.91
2018-03-14T03:06:36.434Z,6.94
2018-03-14T03:07:36.482Z,6.89
2018-03-14T03:08:36.540Z,6.90
2018-03-14T03:09:36.568Z,6.90
2018-03-14T03:10:36.613Z,6.97
2018-03-14T03:11:36.656Z,6.95
2018-03-14T03:12:36.702Z,6.97
2018-03-14T03:13:36.767Z,6.90
2018-03-14T03:14:36.791Z,6.91
2018-03-14T03:15:36.841Z,6.77
2018-03-14T03:16:36.879Z,6.76
2018-03-14T03:17:36.924Z,6.97
2018-03-14T03:18:36.984Z,6.97
2018-03-14T03:19:37.013Z,6.91
2018-03-14T03:20:37.056Z,6.83
2018-03-14T03:21:37.102Z,6.79
2018-03-14T03:22:37.143Z,6.84
2018-03-14T03:23:37.212Z,6.80
2018-03-14T03:24:37.232Z,6.81
2018-03-14T03:25:37.277Z,6.81
2018-03-14T03:26:37.321Z,6.80
2018-03-14T03:27:37.368Z,6.90
2018-03-14T03:28:37.426Z,6.80
2018-03-14T03:29:37.457Z,6.81
2018-03-14T03:30:37.499Z,6.76
2018-03-14T03:31:37.544Z,6.80
2018-03-14T03:32:37.601Z,6.84
2018-03-14T03:33:37.633Z,6.80
2018-03-14T03:34:37.694Z,6.80
2018-03-14T03:35:37.720Z,6.84
2018-03-14T03:36:37.764Z,6.76
2018-03-14T03:37:37.812Z,6.79
2018-03-14T03:38:37.854Z,6.80
2018-03-14T03:39:37.914Z,6.91
2018-03-14T03:40:37.949Z,6.84
2018-03-14T03:41:37.987Z,6.83
2018-03-14T03:42:38.051Z,6.87
2018-03-14T03:43:38.074Z,6.84
2018-03-14T03:44:38.121Z,6.86
2018-03-14T03:45:38.187Z,6.90
2018-03-14T03:46:38.212Z,6.91
2018-03-14T03:47:38.253Z,6.94
2018-03-14T03:48:38.299Z,6.91
2018-03-14T03:49:38.341Z,6.91
2018-03-14T03:50:38.630Z,6.94
2018-03-14T03:51:38.429Z,6.90
2018-03-14T03:52:39.098Z,6.95
2018-03-14T03:53:38.531Z,6.99
2018-03-14T03:54:38.563Z,6.99
2018-03-14T03:55:38.622Z,7.02
2018-03-14T03:56:38.655Z,7.04
2018-03-14T03:57:38.698Z,6.99
2018-03-14T03:58:38.758Z,7.07
2018-03-14T03:59:38.783Z,6.99
2018-03-14T04:00:38.840Z,6.97
2018-03-14T04:01:38.874Z,7.02
2018-03-14T04:02:38.919Z,6.95
2018-03-14T04:03:38.986Z,6.90
2018-03-14T04:04:39.008Z,7.01
2018-03-14T04:05:39.060Z,6.91
2018-03-14T04:06:39.102Z,6.94
2018-03-14T04:07:39.146Z,6.94
2018-03-14T04:08:39.202Z,6.97
2018-03-14T04:09:39.236Z,6.97
2018-03-14T04:10:39.276Z,6.95
2018-03-14T04:11:39.334Z,6.99
2018-03-14T04:12:39.360Z,6.91
2018-03-14T04:13:39.423Z,6.90
2018-03-14T04:14:39.490Z,6.90
2018-03-14T04:15:39.495Z,7.01
2018-03-14T04:16:39.540Z,6.94
2018-03-14T04:17:39.585Z,6.89
2018-03-14T04:18:39.654Z,6.91
2018-03-14T04:19:39.671Z,6.89
2018-03-14T04:20:39.722Z,6.87
2018-03-14T04:21:39.761Z,6.84
2018-03-14T04:22:39.806Z,6.87
2018-03-14T04:23:39.867Z,6.86
2018-03-14T04:24:39.893Z,6.83
2018-03-14T04:25:40.599Z,6.80
2018-03-14T04:26:39.982Z,6.79
2018-03-14T04:27:40.029Z,6.81
2018-03-14T04:28:40.089Z,6.83
2018-03-14T04:29:40.115Z,6.84
2018-03-14T04:30:40.161Z,6.80
2018-03-14T04:31:40.207Z,6.79
2018-03-14T04:32:40.248Z,6.71
2018-03-14T04:33:40.323Z,6.77
2018-03-14T04:34:40.338Z,6.73
2018-03-14T04:35:40.381Z,6.72
2018-03-14T04:36:40.429Z,6.72
2018-03-14T04:37:40.477Z,6.77
2018-03-14T04:38:40.534Z,6.71
2018-03-14T04:39:40.558Z,6.63
2018-03-14T04:40:40.605Z,6.63
2018-03-14T04:41:40.650Z,6.63
2018-03-14T04:42:40.696Z,6.62
2018-03-14T04:43:40.758Z,6.61
2018-03-14T04:44:40.784Z,6.63
2018-03-14T04:45:40.825Z,6.63
2018-03-14T04:46:40.868Z,6.66
2018-03-14T04:47:40.916Z,6.61
2018-03-14T04:48:40.980Z,6.65
2018-03-14T04:49:41.004Z,6.62
2018-03-14T04:50:41.052Z,6.62
2018-03-14T04:51:41.088Z,6.62
2018-03-14T04:52:41.135Z,6.56
2018-03-14T04:53:41.203Z,6.56
2018-03-14T04:54:41.240Z,6.50
2018-03-14T04:55:41.270Z,6.54
2018-03-14T04:56:41.315Z,6.59
2018-03-14T04:57:41.421Z,6.56
2018-03-14T04:58:41.404Z,6.51
2018-03-14T04:59:41.460Z,6.47
2018-03-14T05:00:41.530Z,6.43
2018-03-14T05:01:41.534Z,6.40
2018-03-14T05:02:41.580Z,6.50
2018-03-14T05:03:41.626Z,6.43
2018-03-14T05:04:41.689Z,6.53
2018-03-14T05:05:41.710Z,6.43
2018-03-14T05:06:41.754Z,6.43
2018-03-14T05:07:41.799Z,6.48
2018-03-14T05:08:41.842Z,6.46
2018-03-14T05:09:41.908Z,6.43
2018-03-14T05:10:41.935Z,6.44
2018-03-14T05:11:41.976Z,6.44
2018-03-14T05:12:42.020Z,6.46
2018-03-14T05:13:42.065Z,6.44
2018-03-14T05:14:42.130Z,6.40
2018-03-14T05:15:42.155Z,6.32
2018-03-14T05:16:42.198Z,6.30
2018-03-14T05:17:42.243Z,6.35
2018-03-14T05:18:42.285Z,6.40
2018-03-14T05:19:42.352Z,6.32
2018-03-14T05:20:42.373Z,6.33
2018-03-14T05:21:42.423Z,6.29
2018-03-14T05:22:42.462Z,6.33
2018-03-14T05:23:42.507Z,6.33
2018-03-14T05:24:42.568Z,6.33
2018-03-14T05:25:42.595Z,6.44
2018-03-14T05:26:42.672Z,6.38
2018-03-14T05:27:42.682Z,6.44
2018-03-14T05:28:42.726Z,6.43
2018-03-14T05:29:42.773Z,6.54
2018-03-14T05:30:42.815Z,6.44
2018-03-14T05:31:42.874Z,6.43
2018-03-14T05:32:42.909Z,6.56
2018-03-14T05:33:42.957Z,6.59
2018-03-14T05:34:43.008Z,6.59
2018-03-14T05:35:43.036Z,6.56
2018-03-14T05:36:43.100Z,6.56
2018-03-14T05:37:43.128Z,6.53
2018-03-14T05:38:43.169Z,6.50
2018-03-14T05:39:43.216Z,6.59
2018-03-14T05:40:43.256Z,6.56
2018-03-14T05:41:43.317Z,6.56
2018-03-14T05:42:43.344Z,6.58
2018-03-14T05:43:43.395Z,6.56
2018-03-14T05:44:43.434Z,6.54
2018-03-14T05:45:43.482Z,6.56
2018-03-14T05:46:43.552Z,6.51
2018-03-14T05:47:43.569Z,6.54
2018-03-14T05:48:43.611Z,6.53
2018-03-14T05:49:43.656Z,6.58
2018-03-14T05:50:43.699Z,6.53
2018-03-14T05:51:43.760Z,6.59
2018-03-14T05:52:43.785Z,6.50
2018-03-14T05:53:43.834Z,6.50
2018-03-14T05:54:43.886Z,6.54
2018-03-14T05:55:43.920Z,6.53
2018-03-14T05:56:43.984Z,6.53
2018-03-14T05:57:44.006Z,6.53
2018-03-14T05:58:44.054Z,6.56
2018-03-14T05:59:44.096Z,6.54
2018-03-14T06:00:44.139Z,6.47
2018-03-14T06:01:44.200Z,6.46
2018-03-14T06:02:44.227Z,6.46
2018-03-14T06:03:44.272Z,6.58
2018-03-14T06:04:44.315Z,6.53
2018-03-14T06:05:44.360Z,6.53
2018-03-14T06:06:44.420Z,6.53
2018-03-14T06:07:44.451Z,6.54
2018-03-14T06:08:44.509Z,6.54
2018-03-14T06:09:44.539Z,6.54
2018-03-14T06:10:44.611Z,6.59
2018-03-14T06:11:44.625Z,6.56
2018-03-14T06:12:44.669Z,6.54
2018-03-14T06:13:44.731Z,6.62
2018-03-14T06:14:44.759Z,6.65
2018-03-14T06:15:44.802Z,6.59
2018-03-14T06:16:44.847Z,6.62
2018-03-14T06:17:44.892Z,6.68
2018-03-14T06:18:44.952Z,6.71
2018-03-14T06:19:44.978Z,6.72
2018-03-14T06:20:45.023Z,6.76
2018-03-14T06:21:45.067Z,6.72
2018-03-14T06:22:45.111Z,6.69
2018-03-14T06:23:45.173Z,6.77
2018-03-14T06:24:45.238Z,6.79
2018-03-14T06:25:45.250Z,6.76
2018-03-14T06:26:45.292Z,6.83
2018-03-14T06:27:45.340Z,6.77
2018-03-14T06:28:45.379Z,6.79
2018-03-14T06:29:45.461Z,6.72
2018-03-14T06:30:45.489Z,6.71
2018-03-14T06:31:45.510Z,6.77
2018-03-14T06:32:45.554Z,6.81
2018-03-14T06:33:45.602Z,6.71
2018-03-14T06:34:45.660Z,6.80
2018-03-14T06:35:45.704Z,6.80
2018-03-14T06:36:45.732Z,6.79
2018-03-14T06:37:45.777Z,6.83
2018-03-14T06:38:45.827Z,6.87
2018-03-14T06:39:45.887Z,6.89
2018-03-14T06:40:45.930Z,6.87
2018-03-14T06:41:45.956Z,6.84
2018-03-14T06:42:45.999Z,6.86
2018-03-14T06:43:46.044Z,6.91
2018-03-14T06:44:46.088Z,6.79
2018-03-14T06:45:46.149Z,6.90
2018-03-14T06:46:46.191Z,6.91
2018-03-14T06:47:46.219Z,6.79
2018-03-14T06:48:46.264Z,6.89
2018-03-14T06:49:46.315Z,6.91
2018-03-14T06:50:46.355Z,6.90
2018-03-14T06:51:46.417Z,6.95
2018-03-14T06:52:46.443Z,6.95
2018-03-14T06:53:46.487Z,6.94
2018-03-14T06:54:46.535Z,6.89
2018-03-14T06:55:46.579Z,6.95
2018-03-14T06:56:46.651Z,6.94
2018-03-14T06:57:46.666Z,6.95
2018-03-14T06:58:46.712Z,6.95
2018-03-14T06:59:46.755Z,6.94
2018-03-14T07:00:46.803Z,6.94
2018-03-14T07:01:46.868Z,6.94
2018-03-14T07:02:46.896Z,6.97
2018-03-14T07:03:46.932Z,6.98
2018-03-14T07:04:46.977Z,6.98
2018-03-14T07:05:47.021Z,7.04
2018-03-14T07:06:47.082Z,7.15
2018-03-14T07:07:47.128Z,7.13
2018-03-14T07:08:47.155Z,7.07
2018-03-14T07:09:47.200Z,7.15
2018-03-14T07:10:47.247Z,7.23
2018-03-14T07:11:47.303Z,7.22
2018-03-14T07:12:47.339Z,7.19
2018-03-14T07:13:47.411Z,7.27
2018-03-14T07:14:47.420Z,7.27
2018-03-14T07:15:47.466Z,7.32
2018-03-14T07:16:47.510Z,7.32
2018-03-14T07:17:47.568Z,7.38
2018-03-14T07:18:47.615Z,7.37
2018-03-14T07:19:47.650Z,7.38
2018-03-14T07:20:47.690Z,7.41
2018-03-14T07:21:47.740Z,7.49
2018-03-14T07:22:47.778Z,7.44
2018-03-14T07:23:47.839Z,7.58
2018-03-14T07:24:47.874Z,7.56
2018-03-14T07:25:47.914Z,7.62
2018-03-14T07:26:47.956Z,7.75
2018-03-14T07:27:48.003Z,7.77
2018-03-14T07:28:48.060Z,7.84
2018-03-14T07:29:48.090Z,7.78
2018-03-14T07:30:48.136Z,7.78
2018-03-14T07:31:48.182Z,7.87
2018-03-14T07:32:48.226Z,7.87
2018-03-14T07:33:48.289Z,7.93
2018-03-14T07:34:48.316Z,7.94
2018-03-14T07:35:48.360Z,7.96
2018-03-14T07:36:48.405Z,8.07
2018-03-14T07:37:48.452Z,8.11
2018-03-14T07:38:48.516Z,8.22
2018-03-14T07:39:48.539Z,8.60
2018-03-14T07:40:48.590Z,8.75
2018-03-14T07:41:48.635Z,8.78
2018-03-14T07:42:48.674Z,8.71
2018-03-14T07:43:48.744Z,8.78
2018-03-14T07:44:48.766Z,8.86
2018-03-14T07:45:48.811Z,8.84
2018-03-14T07:46:48.862Z,8.88
2018-03-14T07:47:48.901Z,8.84
2018-03-14T07:48:48.964Z,8.87
2018-03-14T07:49:49.007Z,8.83
2018-03-14T07:50:49.036Z,8.84
2018-03-14T07:51:49.083Z,8.84
2018-03-14T07:52:49.129Z,8.73
2018-03-14T07:53:49.193Z,8.84
2018-03-14T07:54:49.236Z,8.91
2018-03-14T07:55:49.266Z,8.91
2018-03-14T07:56:49.312Z,9.05
2018-03-14T07:57:49.355Z,9.01
2018-03-14T07:58:49.402Z,9.05
2018-03-14T07:59:49.484Z,9.13
2018-03-14T08:00:49.494Z,9.28
2018-03-14T08:01:49.534Z,9.49
2018-03-14T08:02:49.587Z,9.81
2018-03-14T08:03:49.635Z,9.93
2018-03-14T08:04:49.693Z,10.62
2018-03-14T08:05:49.722Z,11.09
2018-03-14T08:06:49.786Z,11.85
2018-03-14T08:07:49.817Z,12.33
2018-03-14T08:08:49.865Z,13.11
2018-03-14T08:09:49.909Z,13.79
2018-03-14T08:10:49.954Z,14.32
2018-03-14T08:11:50.020Z,14.60
2018-03-14T08:12:50.054Z,14.88
2018-03-14T08:13:50.270Z,15.12
2018-03-14T08:14:50.146Z,14.95
2018-03-14T08:15:50.189Z,14.62
2018-03-14T08:16:50.262Z,14.98
2018-03-14T08:17:50.285Z,14.64
2018-03-14T08:18:50.334Z,14.12
2018-03-14T08:19:50.380Z,14.38
2018-03-14T08:20:50.429Z,14.68
2018-03-14T08:21:50.640Z,14.67
2018-03-14T08:22:50.525Z,14.17
2018-03-14T08:23:50.574Z,14.24
2018-03-14T08:24:50.638Z,14.34
2018-03-14T08:25:50.676Z,14.17
2018-03-14T08:26:50.737Z,14.57
2018-03-14T08:27:50.779Z,14.67
2018-03-14T08:28:50.820Z,14.88
2018-03-14T08:29:50.866Z,14.37
2018-03-14T08:30:50.915Z,13.83
2018-03-14T08:31:50.985Z,13.74
2018-03-14T08:32:51.018Z,13.76
2018-03-14T08:33:51.062Z,14.07
2018-03-14T08:34:51.112Z,14.68
2018-03-14T08:35:51.160Z,15.11
2018-03-14T08:36:51.225Z,14.78
2018-03-14T08:37:51.288Z,13.58
2018-03-14T08:38:51.312Z,13.43
2018-03-14T08:39:51.356Z,13.62
2018-03-14T08:40:51.408Z,13.55
2018-03-14T08:41:51.456Z,12.82
2018-03-14T08:42:51.522Z,12.51
2018-03-14T08:43:51.554Z,12.44
2018-03-14T08:44:51.604Z,12.89
2018-03-14T08:45:51.653Z,13.37
2018-03-14T08:46:51.717Z,13.55
2018-03-14T08:47:51.771Z,13.18
2018-03-14T08:48:51.802Z,11.99
2018-03-14T08:49:51.854Z,11.74
2018-03-14T08:50:51.899Z,12.49
2018-03-14T08:51:51.950Z,13.43
2018-03-14T08:52:52.016Z,14.20
2018-03-14T08:53:52.046Z,13.41
2018-03-14T08:54:52.102Z,13.80
2018-03-14T08:55:52.144Z,13.76
2018-03-14T08:56:52.192Z,12.79
2018-03-14T08:57:52.262Z,12.41
2018-03-14T08:58:52.297Z,11.64
2018-03-14T08:59:52.342Z,11.39
2018-03-14T09:00:52.391Z,11.94
2018-03-14T09:01:52.442Z,12.62
2018-03-14T09:02:52.510Z,13.04
2018-03-14T09:03:52.539Z,12.78
2018-03-14T09:04:52.588Z,13.54
2018-03-14T09:05:52.636Z,13.71
2018-03-14T09:06:52.685Z,13.61
2018-03-14T09:07:52.750Z,13.55
2018-03-14T09:08:52.805Z,12.13
2018-03-14T09:09:52.832Z,11.94
2018-03-14T09:10:52.882Z,12.51
2018-03-14T09:11:52.937Z,12.15
2018-03-14T09:12:53.005Z,12.66
2018-03-14T09:13:53.035Z,12.51
2018-03-14T09:14:53.080Z,12.74
2018-03-14T09:15:53.134Z,13.30
2018-03-14T09:16:53.179Z,13.84
2018-03-14T09:17:53.245Z,14.53
2018-03-14T09:18:53.277Z,15.06
2018-03-14T09:19:53.327Z,15.28
2018-03-14T09:20:53.378Z,15.57
2018-03-14T09:21:53.425Z,15.48
2018-03-14T09:22:53.491Z,14.53
2018-03-14T09:23:53.541Z,13.20
2018-03-14T09:24:53.574Z,12.66
2018-03-14T09:25:53.627Z,12.15
2018-03-14T09:26:53.679Z,12.26
2018-03-14T09:27:53.741Z,12.52
2018-03-14T09:28:53.795Z,12.87
2018-03-14T09:29:53.826Z,13.17
2018-03-14T09:30:53.885Z,13.18
2018-03-14T09:31:53.927Z,13.44
2018-03-14T09:32:53.973Z,13.54
2018-03-14T09:33:54.046Z,13.47
2018-03-14T09:34:54.076Z,12.78
2018-03-14T09:35:54.130Z,12.05
2018-03-14T09:36:54.176Z,12.41
2018-03-14T09:37:54.226Z,12.21
2018-03-14T09:38:54.293Z,11.90
2018-03-14T09:39:54.327Z,12.12
2018-03-14T09:40:54.376Z,12.44
2018-03-14T09:41:54.425Z,12.41
2018-03-14T09:42:54.475Z,12.21
2018-03-14T09:43:54.545Z,12.38
2018-03-14T09:44:54.576Z,12.67
2018-03-14T09:45:54.629Z,12.45
2018-03-14T09:46:54.674Z,12.87
2018-03-14T09:47:54.727Z,12.51
2018-03-14T09:48:54.790Z,11.65
2018-03-14T09:49:54.826Z,11.36
2018-03-14T09:50:54.875Z,11.77
2018-03-14T09:51:54.927Z,12.08
2018-03-14T09:52:54.979Z,12.48
2018-03-14T09:53:55.043Z,13.09
2018-03-14T09:54:55.093Z,12.92
2018-03-14T09:55:55.127Z,12.70
2018-03-14T09:56:55.176Z,12.59
2018-03-14T09:57:55.231Z,12.89
2018-03-14T09:58:55.277Z,12.84
2018-03-14T09:59:55.345Z,12.85
2018-03-14T10:00:55.376Z,13.03
2018-03-14T10:01:55.426Z,13.29
2018-03-14T10:02:55.478Z,12.81
2018-03-14T10:03:55.585Z,12.38
2018-03-14T10:04:55.594Z,12.31
2018-03-14T10:05:55.652Z,12.49
2018-03-14T10:06:55.685Z,12.67
2018-03-14T10:07:55.726Z,12.87
2018-03-14T10:08:55.779Z,12.46
2018-03-14T10:09:55.851Z,12.08
2018-03-14T10:10:55.882Z,12.02
2018-03-14T10:11:55.929Z,11.97
2018-03-14T10:12:55.980Z,12.15
2018-03-14T10:13:56.034Z,11.74
2018-03-14T10:14:56.099Z,11.46
2018-03-14T10:15:56.130Z,11.74
2018-03-14T10:16:56.180Z,12.11
2018-03-14T10:17:56.231Z,12.49
2018-03-14T10:18:56.281Z,12.60
2018-03-14T10:19:56.348Z,12.54
2018-03-14T10:20:56.387Z,12.34
2018-03-14T10:21:56.435Z,12.16
2018-03-14T10:22:56.482Z,12.38
2018-03-14T10:23:56.533Z,11.87
2018-03-14T10:24:56.598Z,11.54
2018-03-14T10:25:56.653Z,11.71
2018-03-14T10:26:56.685Z,12.44
2018-03-14T10:27:56.754Z,12.89
2018-03-14T10:28:56.784Z,13.44
2018-03-14T10:29:56.837Z,14.07
2018-03-14T10:30:56.893Z,14.56
2018-03-14T10:31:57.636Z,15.21
2018-03-14T10:32:56.998Z,15.60
2018-03-14T10:33:57.037Z,15.94
2018-03-14T10:34:57.089Z,15.88
2018-03-14T10:35:57.139Z,15.97
2018-03-14T10:36:57.203Z,15.45
2018-03-14T10:37:57.261Z,15.06
2018-03-14T10:38:57.294Z,14.95
2018-03-14T10:39:57.341Z,14.95
2018-03-14T10:40:57.392Z,14.62
2018-03-14T10:41:57.447Z,14.07
2018-03-14T10:42:57.514Z,13.87
2018-03-14T10:43:57.547Z,13.98
2018-03-14T10:44:57.600Z,14.42
2018-03-14T10:45:57.652Z,14.93
2018-03-14T10:46:57.709Z,15.15
2018-03-14T10:47:57.768Z,15.43
2018-03-14T10:48:57.806Z,15.52
2018-03-14T10:49:57.857Z,15.66
2018-03-14T10:50:57.915Z,15.72
2018-03-14T10:51:57.962Z,15.54
2018-03-14T10:52:58.028Z,15.63
2018-03-14T10:53:58.067Z,15.30
2018-03-14T10:54:58.117Z,15.06
2018-03-14T10:55:58.170Z,14.61
2018-03-14T10:56:58.219Z,14.64
2018-03-14T10:57:58.290Z,14.88
2018-03-14T10:58:58.322Z,14.57
2018-03-14T10:59:58.374Z,14.64
2018-03-14T11:00:58.426Z,14.78
2018-03-14T11:01:58.479Z,14.64
2018-03-14T11:02:58.553Z,14.56
2018-03-14T11:03:58.585Z,13.58
2018-03-14T11:04:58.642Z,13.71
2018-03-14T11:05:58.688Z,14.29
2018-03-14T11:06:58.740Z,14.99
2018-03-14T11:07:58.810Z,14.06
2018-03-14T11:08:58.843Z,14.29
2018-03-14T11:09:58.906Z,14.35
2018-03-14T11:10:58.960Z,14.98
2018-03-14T11:11:58.998Z,15.30
2018-03-14T11:12:59.067Z,15.93
2018-03-14T11:13:59.106Z,16.40
2018-03-14T11:14:59.176Z,16.71
2018-03-14T11:15:59.204Z,17.23
2018-03-14T11:16:59.258Z,17.62
2018-03-14T11:17:59.316Z,17.70
2018-03-14T11:18:59.383Z,17.43
2018-03-14T11:19:59.418Z,16.83
2018-03-14T11:20:59.466Z,17.03
2018-03-14T11:21:59.520Z,17.23
2018-03-14T11:22:59.573Z,16.09
2018-03-14T11:23:59.644Z,16.07
2018-03-14T11:24:59.681Z,16.06
2018-03-14T11:25:59.753Z,16.03
2018-03-14T11:26:59.789Z,16.12
2018-03-14T11:27:59.854Z,15.52
2018-03-14T11:28:59.912Z,15.86
2018-03-14T11:29:59.944Z,14.90
2018-03-14T11:31:00.001Z,14.46
2018-03-14T11:32:00.051Z,14.24
2018-03-14T11:33:00.114Z,13.56
2018-03-14T11:34:00.171Z,13.11
2018-03-14T11:35:00.215Z,13.29
2018-03-14T11:36:00.264Z,13.07
2018-03-14T11:37:00.335Z,12.85
2018-03-14T11:38:00.370Z,12.97
2018-03-14T11:39:00.420Z,13.38
2018-03-14T11:40:00.475Z,13.22
2018-03-14T11:41:00.543Z,13.33
2018-03-14T11:42:00.594Z,13.55
2018-03-14T11:43:00.633Z,13.43
2018-03-14T11:44:00.685Z,13.88
2018-03-14T11:45:00.736Z,14.10
2018-03-14T11:46:00.782Z,14.53
2018-03-14T11:47:00.854Z,14.60
2018-03-14T11:48:00.897Z,14.37
2018-03-14T11:49:00.938Z,14.78
2018-03-14T11:50:01.001Z,15.46
2018-03-14T11:51:01.062Z,16.06
2018-03-14T11:52:01.114Z,16.34
2018-03-14T11:53:01.147Z,16.83
2018-03-14T11:54:01.279Z,17.07
2018-03-14T11:55:01.254Z,17.44
2018-03-14T11:56:01.317Z,17.59
2018-03-14T11:57:01.375Z,17.20
2018-03-14T11:58:01.410Z,17.20
2018-03-14T11:59:01.460Z,17.26
2018-03-14T12:00:01.515Z,17.06
2018-03-14T12:01:01.566Z,17.25
2018-03-14T12:02:01.640Z,17.23
2018-03-14T12:03:01.673Z,17.00
2018-03-14T12:04:01.733Z,17.04
2018-03-14T12:05:01.782Z,16.52
2018-03-14T12:06:01.835Z,16.20
2018-03-14T12:07:01.913Z,15.93
2018-03-14T12:08:01.939Z,15.19
2018-03-14T12:09:01.995Z,14.24
2018-03-14T12:10:02.047Z,14.21
2018-03-14T12:11:02.114Z,14.71
2018-03-14T12:12:02.172Z,15.36
2018-03-14T12:13:02.208Z,15.59
2018-03-14T12:14:02.263Z,15.54
2018-03-14T12:15:02.314Z,15.75
2018-03-14T12:16:02.363Z,16.22
2018-03-14T12:17:02.436Z,16.59
2018-03-14T12:18:02.474Z,17.00
2018-03-14T12:19:02.543Z,17.13
2018-03-14T12:20:02.584Z,17.25
2018-03-14T12:21:02.632Z,17.54
2018-03-14T12:22:02.691Z,17.71
2018-03-14T12:23:02.755Z,17.81
2018-03-14T12:24:02.814Z,17.85
2018-03-14T12:25:02.848Z,17.79
2018-03-14T12:26:02.901Z,17.10
2018-03-14T12:27:02.954Z,17.13
2018-03-14T12:28:03.012Z,17.20
2018-03-14T12:29:03.083Z,16.27
2018-03-14T12:30:03.120Z,15.67
2018-03-14T12:31:03.175Z,15.54
2018-03-14T12:32:03.227Z,14.91
2018-03-14T12:33:03.300Z,14.65
2018-03-14T12:34:03.335Z,15.24
2018-03-14T12:35:03.390Z,15.88
2018-03-14T12:36:03.452Z,16.49
2018-03-14T12:37:03.556Z,16.73
2018-03-14T12:38:03.569Z,16.14
2018-03-14T12:39:03.609Z,15.93
2018-03-14T12:40:03.702Z,15.86
2018-03-14T12:41:03.715Z,15.38
2018-03-14T12:42:03.775Z,15.41
2018-03-14T12:43:03.826Z,15.35
2018-03-14T12:44:03.882Z,15.01
2018-03-14T12:45:03.955Z,15.19
2018-03-14T12:46:03.988Z,14.86
2018-03-14T12:47:04.044Z,14.90
2018-03-14T12:48:04.097Z,15.36
2018-03-14T12:49:04.150Z,15.72
2018-03-14T12:50:04.220Z,16.06
2018-03-14T12:51:04.261Z,16.25
2018-03-14T12:52:04.313Z,15.63
2018-03-14T12:53:04.366Z,15.20
2018-03-14T12:54:04.476Z,15.35
2018-03-14T12:55:04.503Z,15.51
2018-03-14T12:56:04.530Z,15.79
2018-03-14T12:57:04.591Z,16.16
2018-03-14T12:58:04.639Z,16.70
2018-03-14T12:59:04.695Z,17.20
2018-03-14T13:00:04.771Z,17.06
2018-03-14T13:01:04.806Z,17.23
2018-03-14T13:02:04.864Z,16.78
2018-03-14T13:03:04.913Z,16.98
2018-03-14T13:04:04.968Z,17.23
2018-03-14T13:05:05.047Z,17.50
2018-03-14T13:06:05.080Z,17.70
2018-03-14T13:07:05.136Z,17.81
2018-03-14T13:08:05.191Z,18.04
2018-03-14T13:09:05.246Z,18.13